Time;durP1;ratioP1;P1;durP2;ratioP2;P2;SDS_P1;SDS_P2;PMS_P1;PMS_P2;Temp;Humidity;BMP_temperature;BMP_pressure;BME280_temperature;BME280_humidity;BME280_pressure;Samples;Min_cycle;Max_cycle;Signal;HPM_P1;HPM_P2
2022/09/15 00:01:38;;;;;;;16.13;10.73;;;13.80;99.90;;;;;;5113965;28;20289;-40
2022/09/15 00:04:04;;;;;;;12.33;9.73;;;13.80;99.90;;;;;;5114027;28;20640;-40
2022/09/15 00:06:30;;;;;;;17.20;11.27;;;13.70;99.90;;;;;;5113895;28;20193;-40
2022/09/15 00:08:58;;;;;;;17.63;11.33;;;13.70;99.90;;;;;;5112672;28;20507;-44
2022/09/15 00:11:27;;;;;;;14.87;10.50;;;13.70;99.90;;;;;;5113552;28;20197;-40
2022/09/15 00:13:53;;;;;;;13.03;10.03;;;13.70;99.90;;;;;;5112449;28;20223;-41
2022/09/15 00:16:21;;;;;;;20.77;10.43;;;13.70;99.90;;;;;;5113838;28;20298;-41
2022/09/15 00:18:46;;;;;;;17.93;10.43;;;13.70;99.90;;;;;;5112430;28;20182;-41
2022/09/15 00:21:18;;;;;;;14.10;9.50;;;13.70;99.90;;;;;;5112384;28;20330;-42
2022/09/15 00:23:44;;;;;;;15.87;10.10;;;13.60;99.90;;;;;;5114156;28;20197;-40
2022/09/15 00:26:12;;;;;;;19.67;10.20;;;13.70;99.90;;;;;;5113678;28;20313;-44
2022/09/15 00:28:38;;;;;;;16.17;10.10;;;13.60;99.90;;;;;;5113682;28;20658;-40
2022/09/15 00:31:06;;;;;;;15.43;10.40;;;13.60;99.90;;;;;;5113005;28;20189;-40
2022/09/15 00:33:32;;;;;;;13.80;10.30;;;13.60;99.90;;;;;;5113619;28;20765;-41
2022/09/15 00:36:02;;;;;;;12.97;9.87;;;13.60;99.90;;;;;;5113505;28;20360;-39
2022/09/15 00:38:27;;;;;;;14.70;9.93;;;13.60;99.90;;;;;;5113726;28;20191;-39
2022/09/15 00:40:55;;;;;;;13.90;9.60;;;13.60;99.90;;;;;;5113605;28;20174;-38
2022/09/15 00:43:42;;;;;;;13.40;9.83;;;13.60;99.90;;;;;;5113410;28;20206;-37
2022/09/15 00:46:08;;;;;;;15.07;9.83;;;13.60;99.90;;;;;;5112042;28;20224;-39
2022/09/15 00:48:36;;;;;;;13.57;10.23;;;13.60;99.90;;;;;;5113346;28;20628;-40
2022/09/15 00:51:04;;;;;;;14.87;10.70;;;13.50;99.90;;;;;;5095038;28;20187;-38
2022/09/15 00:53:32;;;;;;;13.37;9.30;;;13.50;99.90;;;;;;5113318;28;20198;-37
2022/09/15 00:55:59;;;;;;;14.17;9.40;;;13.50;99.90;;;;;;5113155;28;20193;-39
2022/09/15 00:58:49;;;;;;;13.67;9.57;;;13.50;99.90;;;;;;5112051;28;20210;-41
2022/09/15 01:01:15;;;;;;;15.43;10.37;;;13.40;99.90;;;;;;5111859;28;20208;-38
2022/09/15 01:03:41;;;;;;;15.50;9.73;;;13.40;99.90;;;;;;5113462;28;20254;-40
2022/09/15 01:06:41;;;;;;;13.70;10.07;;;13.40;99.90;;;;;;5113299;28;20198;-38
2022/09/15 01:09:26;;;;;;;17.20;10.43;;;13.40;99.90;;;;;;5113230;28;20559;-39
2022/09/15 01:11:51;;;;;;;13.90;9.70;;;13.30;99.90;;;;;;5096939;28;20201;-40
2022/09/15 01:14:17;;;;;;;14.97;10.23;;;13.30;99.90;;;;;;5113400;28;20647;-38
2022/09/15 01:16:55;;;;;;;13.23;9.57;;;13.20;99.90;;;;;;5113008;28;20198;-39
2022/09/15 01:19:58;;;;;;;14.67;10.60;;;13.20;99.90;;;;;;5113232;28;20612;-38
2022/09/15 01:22:36;;;;;;;18.40;12.27;;;13.20;99.90;;;;;;5111948;28;20202;-40
2022/09/15 01:25:13;;;;;;;20.87;14.00;;;13.20;99.90;;;;;;5111601;28;20683;-39
2022/09/15 01:28:13;;;;;;;20.17;14.23;;;13.10;99.90;;;;;;5111774;28;20170;-40
2022/09/15 01:30:45;;;;;;;19.33;12.43;;;13.10;99.90;;;;;;5110927;28;20593;-38
2022/09/15 01:33:25;;;;;;;17.90;13.13;;;13.10;99.90;;;;;;5113273;28;20170;-38
2022/09/15 01:36:07;;;;;;;19.53;12.43;;;13.00;99.90;;;;;;5111565;28;20216;-39
2022/09/15 01:38:51;;;;;;;18.13;12.40;;;13.00;99.90;;;;;;5112919;28;20167;-37
2022/09/15 01:41:33;;;;;;;17.67;11.87;;;13.00;99.90;;;;;;5111676;28;20569;-40
2022/09/15 01:44:25;;;;;;;13.57;11.00;;;13.00;99.90;;;;;;5115490;28;20167;-38
2022/09/15 01:46:57;;;;;;;16.80;11.27;;;12.90;99.90;;;;;;5110632;28;20249;-37
2022/09/15 01:49:29;;;;;;;15.30;11.37;;;12.90;99.90;;;;;;5115386;28;20182;-41
2022/09/15 01:51:54;;;;;;;19.60;12.37;;;12.80;99.90;;;;;;5117005;28;20183;-38
2022/09/15 01:54:34;;;;;;;18.70;11.63;;;12.80;99.90;;;;;;5116772;28;20186;-40
2022/09/15 01:57:01;;;;;;;18.43;12.43;;;12.80;99.90;;;;;;5116460;28;20245;-41
2022/09/15 01:59:27;;;;;;;18.97;11.97;;;12.80;99.90;;;;;;5116411;28;20178;-42
2022/09/15 02:02:01;;;;;;;15.77;11.73;;;12.70;99.90;;;;;;5116292;28;20209;-40
2022/09/15 02:04:40;;;;;;;16.27;12.20;;;12.70;99.90;;;;;;5115009;28;20175;-42
2022/09/15 02:07:19;;;;;;;18.50;12.30;;;12.70;99.90;;;;;;5116310;28;20278;-37
2022/09/15 02:10:26;;;;;;;18.57;12.57;;;12.70;99.90;;;;;;5115656;28;20208;-39
2022/09/15 02:12:54;;;;;;;16.73;11.20;;;12.60;99.90;;;;;;5105280;27;20280;-39
2022/09/15 02:15:29;;;;;;;15.97;11.63;;;12.60;99.90;;;;;;5114817;28;20201;-39
2022/09/15 02:17:58;;;;;;;16.90;11.90;;;12.60;99.90;;;;;;5116017;28;20169;-39
2022/09/15 02:20:33;;;;;;;17.50;12.53;;;12.60;99.90;;;;;;5116169;28;20177;-41
2022/09/15 02:23:07;;;;;;;16.97;12.20;;;12.60;99.90;;;;;;5114748;28;20615;-39
2022/09/15 02:25:42;;;;;;;18.47;13.07;;;12.50;99.90;;;;;;5114442;28;20217;-41
2022/09/15 02:28:10;;;;;;;17.40;12.03;;;12.50;99.90;;;;;;5115886;28;20166;-41
2022/09/15 02:30:40;;;;;;;15.03;11.20;;;12.50;99.90;;;;;;5114490;28;20183;-39
2022/09/15 02:33:10;;;;;;;18.53;12.30;;;12.40;99.90;;;;;;5114457;28;20184;-40
2022/09/15 02:35:38;;;;;;;19.73;13.80;;;12.40;99.90;;;;;;5115909;28;20198;-42
2022/09/15 02:38:07;;;;;;;22.43;12.10;;;12.40;99.90;;;;;;5115914;28;20201;-40
2022/09/15 02:40:34;;;;;;;15.97;11.43;;;12.30;99.90;;;;;;5116354;28;20177;-39
2022/09/15 02:43:02;;;;;;;18.20;11.77;;;12.30;99.90;;;;;;5115867;28;20666;-40
2022/09/15 02:45:29;;;;;;;18.03;11.47;;;12.30;99.90;;;;;;5114650;28;20308;-42
2022/09/15 02:47:59;;;;;;;17.37;12.37;;;12.30;99.90;;;;;;5114773;28;20690;-42
2022/09/15 02:50:25;;;;;;;15.83;11.73;;;12.20;99.90;;;;;;5115877;28;20178;-44
2022/09/15 02:52:54;;;;;;;16.00;11.50;;;12.20;99.90;;;;;;5116018;28;20554;-44
2022/09/15 02:55:21;;;;;;;19.27;12.03;;;12.20;99.90;;;;;;5113690;28;20201;-44
2022/09/15 02:57:47;;;;;;;16.93;11.57;;;12.10;99.90;;;;;;5115464;28;20197;-45
2022/09/15 03:00:13;;;;;;;16.67;12.13;;;12.20;99.90;;;;;;5115316;28;20545;-44
2022/09/15 03:02:41;;;;;;;16.60;12.13;;;12.10;99.90;;;;;;5115720;28;20212;-45
2022/09/15 03:05:07;;;;;;;15.80;11.93;;;12.10;99.90;;;;;;5097415;28;20284;-44
2022/09/15 03:07:33;;;;;;;16.80;11.10;;;12.10;99.90;;;;;;5115108;28;20673;-44
2022/09/15 03:09:59;;;;;;;17.93;11.97;;;12.10;99.90;;;;;;5115243;28;20217;-44
2022/09/15 03:12:25;;;;;;;17.70;12.00;;;12.10;99.90;;;;;;5115410;28;20210;-44
2022/09/15 03:14:51;;;;;;;19.30;12.23;;;12.10;99.90;;;;;;5114860;28;20205;-44
2022/09/15 03:17:17;;;;;;;19.37;12.20;;;12.00;99.90;;;;;;5115210;28;20185;-44
2022/09/15 03:19:43;;;;;;;16.00;12.17;;;12.00;99.90;;;;;;5113533;28;20223;-44
2022/09/15 03:22:09;;;;;;;15.93;11.87;;;12.10;99.90;;;;;;5113585;28;20231;-46
2022/09/15 03:24:36;;;;;;;21.67;13.63;;;12.10;99.90;;;;;;5114654;28;20190;-45
2022/09/15 03:27:03;;;;;;;21.00;11.97;;;12.10;99.90;;;;;;5113466;28;20549;-45
2022/09/15 03:29:28;;;;;;;17.10;11.87;;;12.10;99.90;;;;;;5115093;27;20181;-43
2022/09/15 03:31:54;;;;;;;21.63;12.67;;;12.20;99.90;;;;;;5114575;28;20212;-43
2022/09/15 03:34:19;;;;;;;17.53;12.37;;;12.20;99.90;;;;;;5114592;28;20282;-45
2022/09/15 03:36:45;;;;;;;19.00;12.37;;;12.10;99.90;;;;;;5113595;28;20205;-43
2022/09/15 03:39:11;;;;;;;20.23;12.67;;;12.20;99.90;;;;;;5114482;28;20354;-43
2022/09/15 03:41:37;;;;;;;20.03;12.37;;;12.20;99.90;;;;;;5114333;28;20276;-44
2022/09/15 03:44:03;;;;;;;19.67;12.43;;;12.20;99.90;;;;;;5114494;28;20640;-45
2022/09/15 03:46:29;;;;;;;20.87;12.27;;;12.20;99.90;;;;;;5114222;28;20205;-42
2022/09/15 03:48:54;;;;;;;21.77;13.00;;;12.20;99.90;;;;;;5113042;28;20215;-44
2022/09/15 03:51:20;;;;;;;16.67;12.53;;;12.20;99.90;;;;;;5114102;28;20173;-46
2022/09/15 03:53:46;;;;;;;16.20;11.83;;;12.20;99.90;;;;;;5114103;28;20178;-45
2022/09/15 03:56:25;;;;;;;18.23;12.70;;;12.20;99.90;;;;;;5114325;28;20300;-44
2022/09/15 03:58:51;;;;;;;18.47;11.70;;;12.20;99.90;;;;;;5112724;28;20185;-43
2022/09/15 04:01:17;;;;;;;17.37;12.00;;;12.20;99.90;;;;;;5112658;28;20189;-43
2022/09/15 04:03:44;;;;;;;17.30;11.57;;;12.20;99.90;;;;;;5114075;28;20185;-44
2022/09/15 04:06:09;;;;;;;19.47;12.83;;;12.20;99.90;;;;;;5113349;28;20197;-45
2022/09/15 04:08:35;;;;;;;17.73;12.77;;;12.30;99.90;;;;;;5114213;28;20721;-44
2022/09/15 04:11:09;;;;;;;18.63;12.40;;;12.30;99.90;;;;;;5112679;28;20689;-43
2022/09/15 04:13:36;;;;;;;21.10;12.77;;;12.30;99.90;;;;;;5114281;28;20243;-43
2022/09/15 04:16:06;;;;;;;18.63;12.93;;;12.30;99.90;;;;;;5114362;28;20201;-45
2022/09/15 04:18:33;;;;;;;18.47;12.83;;;12.30;99.90;;;;;;5113994;28;20178;-45
2022/09/15 04:21:07;;;;;;;18.83;12.47;;;12.40;99.90;;;;;;5112309;28;20272;-45
2022/09/15 04:23:33;;;;;;;18.20;12.30;;;12.40;99.90;;;;;;5113939;28;20165;-44
2022/09/15 04:26:06;;;;;;;19.13;12.50;;;12.40;99.90;;;;;;5113465;28;20217;-43
2022/09/15 04:28:34;;;;;;;15.77;11.30;;;12.40;99.90;;;;;;5112317;28;20177;-45
2022/09/15 04:31:18;;;;;;;17.07;11.27;;;12.40;99.90;;;;;;5112200;28;20185;-45
2022/09/15 04:33:44;;;;;;;16.30;11.33;;;12.40;99.90;;;;;;5113863;28;20166;-45
2022/09/15 04:36:16;;;;;;;17.23;11.70;;;12.40;99.90;;;;;;5113581;28;20194;-45
2022/09/15 04:38:42;;;;;;;19.67;11.60;;;12.50;99.90;;;;;;5112187;28;20663;-45
2022/09/15 04:41:09;;;;;;;19.30;11.97;;;12.50;99.90;;;;;;5112041;28;20656;-44
2022/09/15 04:43:34;;;;;;;19.97;11.00;;;12.50;99.90;;;;;;5113505;28;20788;-45
2022/09/15 04:46:00;;;;;;;18.03;11.23;;;12.50;99.90;;;;;;5113400;28;20213;-45
2022/09/15 04:48:26;;;;;;;17.00;11.67;;;12.50;99.90;;;;;;5113633;28;20670;-44
2022/09/15 04:50:52;;;;;;;16.77;11.07;;;12.50;99.90;;;;;;5112083;28;20628;-44
2022/09/15 04:53:18;;;;;;;19.30;11.47;;;12.50;99.90;;;;;;5113596;28;20230;-45
2022/09/15 04:55:43;;;;;;;15.80;10.60;;;12.50;99.90;;;;;;5113631;28;20575;-44
2022/09/15 04:58:09;;;;;;;18.33;10.90;;;12.50;99.90;;;;;;5113428;28;20178;-44
2022/09/15 05:00:43;;;;;;;20.30;10.77;;;12.50;99.90;;;;;;5113367;28;20201;-44
2022/09/15 05:03:12;;;;;;;17.97;10.70;;;12.50;99.90;;;;;;5113553;28;20594;-45
2022/09/15 05:05:39;;;;;;;16.90;10.50;;;12.50;99.90;;;;;;5113627;28;20202;-45
2022/09/15 05:08:06;;;;;;;16.20;10.90;;;12.50;99.90;;;;;;5113450;28;20179;-45
2022/09/15 05:10:32;;;;;;;15.93;9.73;;;12.50;99.90;;;;;;5113226;28;20203;-44
2022/09/15 05:12:57;;;;;;;15.00;10.17;;;12.50;99.90;;;;;;5113271;28;20174;-46
2022/09/15 05:15:23;;;;;;;13.97;9.90;;;12.50;99.90;;;;;;5113309;28;20205;-44
2022/09/15 05:17:49;;;;;;;18.43;10.80;;;12.50;99.90;;;;;;5115786;28;20515;-44
2022/09/15 05:20:16;;;;;;;16.17;10.17;;;12.50;99.90;;;;;;5115815;28;20189;-45
2022/09/15 05:22:41;;;;;;;15.20;10.40;;;12.50;99.90;;;;;;5117114;28;20240;-43
2022/09/15 05:25:07;;;;;;;14.67;9.27;;;12.40;99.90;;;;;;5116941;28;20213;-42
2022/09/15 05:27:33;;;;;;;14.80;10.17;;;12.50;99.90;;;;;;5117355;28;20636;-43
2022/09/15 05:29:59;;;;;;;16.63;10.37;;;12.50;99.90;;;;;;5115770;28;20318;-45
2022/09/15 05:32:25;;;;;;;18.37;11.60;;;12.40;99.90;;;;;;5117087;28;20265;-44
2022/09/15 05:34:50;;;;;;;16.20;10.27;;;12.50;99.90;;;;;;5117385;28;20211;-45
2022/09/15 05:37:16;;;;;;;17.90;10.60;;;12.50;99.90;;;;;;5117161;27;20174;-45
2022/09/15 05:39:41;;;;;;;19.50;10.93;;;12.50;99.90;;;;;;5117083;28;20277;-45
2022/09/15 05:42:07;;;;;;;15.90;10.53;;;12.50;99.90;;;;;;5116691;28;20225;-43
2022/09/15 05:44:33;;;;;;;16.87;11.03;;;12.60;99.90;;;;;;5116914;28;20200;-45
2022/09/15 05:46:59;;;;;;;18.60;10.57;;;12.60;99.90;;;;;;5117160;28;20256;-43
2022/09/15 05:49:25;;;;;;;18.67;11.23;;;12.60;99.90;;;;;;5116562;28;20169;-44
2022/09/15 05:51:50;;;;;;;17.90;10.03;;;12.60;99.90;;;;;;5116927;28;20205;-45
2022/09/15 05:54:16;;;;;;;15.07;10.97;;;12.60;99.90;;;;;;5117038;28;20200;-42
2022/09/15 05:56:42;;;;;;;21.43;11.83;;;12.60;99.90;;;;;;5117576;28;20200;-43
2022/09/15 05:59:07;;;;;;;18.33;11.07;;;12.70;99.90;;;;;;5116673;28;20727;-44
2022/09/15 06:01:33;;;;;;;17.27;10.47;;;12.70;99.90;;;;;;5116448;28;20281;-43
2022/09/15 06:03:58;;;;;;;16.53;11.23;;;12.70;99.90;;;;;;5115515;28;20211;-44
2022/09/15 06:06:25;;;;;;;18.47;11.90;;;12.80;99.90;;;;;;5116404;28;20186;-44
2022/09/15 06:08:54;;;;;;;17.40;11.20;;;12.80;99.90;;;;;;5116329;28;20178;-44
2022/09/15 06:11:25;;;;;;;16.47;10.77;;;12.80;99.90;;;;;;5116482;28;20177;-45
2022/09/15 06:13:50;;;;;;;20.17;11.47;;;12.80;99.90;;;;;;5116285;28;20169;-45
2022/09/15 06:16:23;;;;;;;18.53;11.03;;;12.90;99.90;;;;;;5114738;28;20557;-45
2022/09/15 06:18:51;;;;;;;19.03;12.13;;;12.90;99.90;;;;;;5116682;28;20174;-44
2022/09/15 06:21:25;;;;;;;18.83;11.37;;;12.90;99.90;;;;;;5116053;28;20177;-44
2022/09/15 06:23:55;;;;;;;16.27;11.27;;;13.00;99.90;;;;;;5116189;28;20161;-45
2022/09/15 06:26:22;;;;;;;16.23;11.57;;;13.00;99.90;;;;;;5116222;28;20559;-43
2022/09/15 06:29:02;;;;;;;19.73;11.20;;;13.00;99.90;;;;;;5114914;28;20253;-45
2022/09/15 06:31:30;;;;;;;18.30;11.90;;;13.10;99.90;;;;;;5115826;28;20685;-46
2022/09/15 06:33:56;;;;;;;23.60;11.73;;;13.10;99.90;;;;;;5116031;28;20201;-45
2022/09/15 06:36:25;;;;;;;21.07;11.63;;;13.20;99.90;;;;;;5115606;28;20205;-46
2022/09/15 06:38:50;;;;;;;18.80;11.47;;;13.20;99.90;;;;;;5115672;28;20184;-44
2022/09/15 06:41:16;;;;;;;22.40;12.70;;;13.20;99.90;;;;;;5114319;28;20553;-45
2022/09/15 06:43:43;;;;;;;18.67;11.33;;;13.30;99.90;;;;;;5114560;28;20603;-43
2022/09/15 06:46:18;;;;;;;22.43;11.93;;;13.30;99.90;;;;;;5115398;28;20266;-45
2022/09/15 06:48:44;;;;;;;16.83;11.40;;;13.30;99.90;;;;;;5115402;28;20198;-43
2022/09/15 06:51:11;;;;;;;22.43;12.03;;;13.40;99.90;;;;;;5115421;28;20167;-45
2022/09/15 06:53:38;;;;;;;23.57;12.20;;;13.30;99.90;;;;;;5114155;28;20182;-44
2022/09/15 06:56:06;;;;;;;22.77;13.23;;;13.40;99.90;;;;;;5115170;28;20190;-42
2022/09/15 06:58:34;;;;;;;16.37;11.93;;;13.40;99.90;;;;;;5115278;28;20178;-45
2022/09/15 07:01:09;;;;;;;22.63;12.43;;;13.50;99.90;;;;;;5115364;28;20171;-44
2022/09/15 07:03:35;;;;;;;19.50;12.83;;;13.50;99.90;;;;;;5115527;28;20215;-45
2022/09/15 07:06:02;;;;;;;20.77;12.37;;;13.60;99.90;;;;;;5115409;28;20202;-44
2022/09/15 07:08:28;;;;;;;20.40;13.20;;;13.60;99.90;;;;;;5115172;28;20166;-44
2022/09/15 07:10:54;;;;;;;20.23;13.27;;;13.60;99.90;;;;;;5115282;28;20224;-46
2022/09/15 07:13:20;;;;;;;26.23;13.57;;;13.70;99.90;;;;;;5115718;28;20261;-45
2022/09/15 07:15:54;;;;;;;21.10;11.77;;;13.60;99.90;;;;;;5115454;28;20251;-45
2022/09/15 07:18:21;;;;;;;18.67;12.10;;;13.70;99.90;;;;;;5115210;28;20165;-45
2022/09/15 07:20:46;;;;;;;19.07;11.93;;;13.70;99.90;;;;;;5113950;28;20177;-46
2022/09/15 07:23:13;;;;;;;21.77;12.93;;;13.80;99.90;;;;;;5115393;28;20202;-45
2022/09/15 07:25:42;;;;;;;20.47;13.07;;;13.80;99.90;;;;;;5115169;28;20740;-44
2022/09/15 07:28:09;;;;;;;22.90;12.90;;;13.90;99.90;;;;;;5114939;28;20660;-44
2022/09/15 07:30:34;;;;;;;21.17;12.60;;;13.90;99.90;;;;;;5114949;28;20201;-45
2022/09/15 07:33:00;;;;;;;24.00;13.47;;;14.00;99.90;;;;;;5114963;28;20197;-45
2022/09/15 07:35:26;;;;;;;22.97;13.53;;;14.00;99.90;;;;;;5115089;28;20198;-45
2022/09/15 07:37:51;;;;;;;24.90;14.23;;;14.00;99.90;;;;;;5114455;28;20206;-43
2022/09/15 07:40:17;;;;;;;21.63;13.40;;;14.00;99.90;;;;;;5114541;28;20519;-44
2022/09/15 07:42:43;;;;;;;20.87;12.17;;;14.20;99.90;;;;;;5114560;28;20281;-45
2022/09/15 07:45:10;;;;;;;27.53;13.70;;;14.20;99.90;;;;;;5114570;28;20239;-45
2022/09/15 07:47:36;;;;;;;21.23;13.07;;;14.20;99.90;;;;;;5114573;28;20181;-46
2022/09/15 07:50:03;;;;;;;27.17;14.47;;;14.30;99.90;;;;;;5114249;28;20178;-44
2022/09/15 07:52:29;;;;;;;24.20;14.40;;;14.40;99.90;;;;;;5114451;28;20177;-46
2022/09/15 07:54:55;;;;;;;22.00;15.13;;;14.40;99.90;;;;;;5114373;28;20244;-44
2022/09/15 07:57:21;;;;;;;28.47;16.50;;;14.50;99.90;;;;;;5114523;28;20178;-44
2022/09/15 07:59:46;;;;;;;29.43;18.20;;;14.60;99.90;;;;;;5114013;28;20223;-44
2022/09/15 08:02:16;;;;;;;27.47;17.10;;;14.70;99.90;;;;;;5114196;28;20213;-44
2022/09/15 08:04:42;;;;;;;29.13;16.53;;;14.80;99.90;;;;;;5112607;28;20178;-43
2022/09/15 08:07:08;;;;;;;24.17;16.27;;;14.80;99.90;;;;;;5113991;28;20181;-45
2022/09/15 08:09:33;;;;;;;26.33;16.93;;;14.90;99.90;;;;;;5113932;28;20654;-43
2022/09/15 08:11:59;;;;;;;30.77;17.77;;;14.90;99.90;;;;;;5112633;28;20228;-44
2022/09/15 08:14:24;;;;;;;25.87;17.80;;;15.00;99.90;;;;;;5113873;28;20257;-47
2022/09/15 08:16:50;;;;;;;27.53;17.47;;;15.10;99.90;;;;;;5113811;28;20251;-46
2022/09/15 08:19:16;;;;;;;24.97;16.37;;;15.10;99.90;;;;;;5113865;28;20258;-43
2022/09/15 08:21:41;;;;;;;26.50;17.00;;;15.00;99.90;;;;;;5113620;28;20616;-45
2022/09/15 08:24:08;;;;;;;30.23;17.60;;;15.00;99.90;;;;;;5113749;28;20177;-43
2022/09/15 08:26:37;;;;;;;27.83;17.43;;;15.00;99.90;;;;;;5114159;28;20233;-45
2022/09/15 08:29:02;;;;;;;22.93;17.17;;;15.00;99.90;;;;;;5114266;28;20162;-46
2022/09/15 08:31:28;;;;;;;28.10;17.47;;;15.00;99.90;;;;;;5112371;28;20198;-43
2022/09/15 08:33:54;;;;;;;26.27;18.20;;;15.10;99.90;;;;;;5113951;28;20174;-44
2022/09/15 08:36:21;;;;;;;26.83;18.07;;;15.10;99.90;;;;;;5113580;28;20195;-43
2022/09/15 08:38:46;;;;;;;32.67;19.33;;;15.10;99.90;;;;;;5112294;28;20216;-44
2022/09/15 08:41:36;;;;;;;27.43;19.10;;;15.10;99.90;;;;;;5113672;28;20180;-45
2022/09/15 08:44:26;;;;;;;23.87;17.90;;;15.20;99.90;;;;;;5113772;28;20699;-45
2022/09/15 08:47:12;;;;;;;27.93;18.57;;;15.30;99.90;;;;;;5110304;28;20221;-45
2022/09/15 08:49:43;;;;;;;27.07;16.77;;;15.40;99.90;;;;;;5113745;28;20159;-46
2022/09/15 08:52:31;;;;;;;24.70;17.70;;;15.60;99.90;;;;;;5115300;28;20621;-43
2022/09/15 08:54:59;;;;;;;23.03;17.20;;;15.70;99.90;;;;;;5117866;28;20194;-45
2022/09/15 08:57:25;;;;;;;22.43;17.73;;;15.80;99.90;;;;;;5117590;28;20174;-45
2022/09/15 08:59:53;;;;;;;24.67;18.33;;;15.80;99.90;;;;;;5117500;28;20269;-45
2022/09/15 09:02:24;;;;;;;23.03;16.73;;;16.00;99.90;;;;;;5117636;28;20280;-44
2022/09/15 09:04:56;;;;;;;22.80;15.53;;;16.10;99.90;;;;;;5117362;28;20202;-44
2022/09/15 09:07:33;;;;;;;22.33;13.93;;;16.30;99.90;;;;;;5117650;28;20273;-44
2022/09/15 09:10:37;;;;;;;17.80;12.73;;;16.30;99.90;;;;;;5117732;28;20179;-44
2022/09/15 09:13:21;;;;;;;19.83;13.47;;;16.50;99.90;;;;;;5105819;28;20185;-44
2022/09/15 09:16:20;;;;;;;18.57;12.90;;;16.60;99.90;;;;;;5117383;28;20205;-45
2022/09/15 09:19:09;;;;;;;15.90;12.07;;;16.60;99.90;;;;;;5117330;28;20163;-45
2022/09/15 09:21:40;;;;;;;19.93;12.40;;;16.70;99.90;;;;;;5117138;28;20198;-45
2022/09/15 09:24:26;;;;;;;17.17;12.27;;;16.80;99.90;;;;;;5117348;28;20155;-45
2022/09/15 09:26:54;;;;;;;16.43;12.07;;;16.90;99.90;;;;;;5117169;28;20697;-45
2022/09/15 09:29:31;;;;;;;16.23;12.10;;;16.90;99.90;;;;;;5117126;28;20177;-45
2022/09/15 09:31:58;;;;;;;14.03;10.77;;;17.00;99.90;;;;;;5117055;28;20166;-44
2022/09/15 09:34:44;;;;;;;14.57;10.80;;;17.00;99.90;;;;;;5117554;28;20256;-44
2022/09/15 09:37:13;;;;;;;17.83;10.53;;;17.10;99.90;;;;;;5118410;28;20166;-44
2022/09/15 09:39:39;;;;;;;19.20;9.67;;;17.10;99.90;;;;;;5117830;28;20249;-44
2022/09/15 09:42:08;;;;;;;15.00;9.17;;;17.20;99.90;;;;;;5117797;28;20284;-45
2022/09/15 09:44:34;;;;;;;14.50;9.00;;;17.20;99.90;;;;;;5117560;28;20170;-44
2022/09/15 09:47:00;;;;;;;12.60;8.30;;;17.30;99.90;;;;;;5117273;28;20506;-44
2022/09/15 09:49:33;;;;;;;14.17;8.70;;;17.30;99.90;;;;;;5116705;28;20205;-45
2022/09/15 09:52:03;;;;;;;12.87;7.57;;;17.30;99.90;;;;;;5115440;28;20269;-45
2022/09/15 09:54:31;;;;;;;11.80;7.80;;;17.30;99.90;;;;;;5117192;28;20159;-44
2022/09/15 09:57:12;;;;;;;12.80;7.57;;;17.30;99.90;;;;;;5117220;28;20640;-44
2022/09/15 09:59:41;;;;;;;10.33;7.03;;;17.30;99.90;;;;;;5116713;28;20263;-45
2022/09/15 10:02:09;;;;;;;10.20;7.67;;;17.30;99.90;;;;;;5116753;27;20614;-45
2022/09/15 10:04:36;;;;;;;10.87;7.97;;;17.30;99.90;;;;;;5113801;28;20178;-44
2022/09/15 10:07:01;;;;;;;11.90;8.10;;;17.40;99.90;;;;;;5116682;28;20182;-45
2022/09/15 10:09:27;;;;;;;11.83;7.63;;;17.40;99.90;;;;;;5116375;28;20226;-45
2022/09/15 10:11:57;;;;;;;10.40;6.87;;;17.40;99.90;;;;;;5116499;28;20182;-43
2022/09/15 10:14:32;;;;;;;16.50;7.63;;;17.50;99.90;;;;;;5116613;28;20159;-45
2022/09/15 10:17:01;;;;;;;14.63;8.30;;;17.50;99.90;;;;;;5115337;28;20174;-40
2022/09/15 10:19:32;;;;;;;10.70;7.57;;;17.60;99.90;;;;;;5116442;28;20182;-40
2022/09/15 10:22:00;;;;;;;11.07;7.30;;;17.70;99.90;;;;;;5116619;28;20202;-42
2022/09/15 10:24:25;;;;;;;12.57;7.40;;;17.70;99.90;;;;;;5116076;28;20181;-42
2022/09/15 10:27:04;;;;;;;11.67;7.23;;;17.80;99.90;;;;;;5115850;28;20543;-40
2022/09/15 10:29:37;;;;;;;9.80;6.70;;;17.90;99.90;;;;;;5116623;28;20174;-44
2022/09/15 10:32:20;;;;;;;13.97;6.57;;;18.00;99.90;;;;;;5116582;28;20167;-43
2022/09/15 10:34:47;;;;;;;9.67;6.43;;;18.10;99.90;;;;;;5115992;27;20166;-44
2022/09/15 10:37:33;;;;;;;9.10;6.43;;;18.20;99.90;;;;;;5116118;28;20174;-43
2022/09/15 10:40:06;;;;;;;9.87;5.57;;;18.30;99.90;;;;;;5114363;28;20182;-42
2022/09/15 10:43:04;;;;;;;11.50;4.47;;;18.40;99.90;;;;;;5115726;28;20206;-42
2022/09/15 10:45:36;;;;;;;7.00;4.53;;;18.30;99.90;;;;;;5103206;28;20221;-44
2022/09/15 10:48:52;;;;;;;8.60;5.03;;;18.30;99.90;;;;;;5114232;28;20227;-42
2022/09/15 10:51:50;;;;;;;8.57;4.97;;;18.30;99.90;;;;;;5106208;28;20559;-42
2022/09/15 10:54:40;;;;;;;14.90;5.73;;;18.40;99.90;;;;;;5116050;28;20158;-43
2022/09/15 10:57:17;;;;;;;7.10;4.40;;;18.60;99.90;;;;;;5099763;28;20174;-42
2022/09/15 11:00:09;;;;;;;6.57;3.57;;;18.70;99.90;;;;;;5115483;28;20623;-44
2022/09/15 11:03:02;;;;;;;11.43;3.87;;;18.80;99.90;;;;;;5115398;28;20190;-43
2022/09/15 11:06:05;;;;;;;6.40;3.00;;;18.80;99.90;;;;;;5115373;28;20251;-39
2022/09/15 11:08:40;;;;;;;10.40;3.30;;;18.90;99.90;;;;;;5115047;28;20262;-38
2022/09/15 11:11:24;;;;;;;7.23;2.87;;;18.90;99.90;;;;;;5115415;27;20247;-41
2022/09/15 11:13:53;;;;;;;5.07;3.17;;;18.80;99.90;;;;;;5115162;28;20162;-42
2022/09/15 11:16:39;;;;;;;5.20;2.93;;;18.80;99.90;;;;;;5114717;27;20221;-38
2022/09/15 11:19:26;;;;;;;8.17;3.20;;;18.90;99.90;;;;;;5115378;28;20277;-40
2022/09/15 11:22:01;;;;;;;5.67;2.60;;;19.00;99.90;;;;;;5115081;28;20555;-40
2022/09/15 11:24:38;;;;;;;3.67;1.93;;;19.00;99.90;;;;;;5113425;28;20182;-39
2022/09/15 11:27:11;;;;;;;3.87;1.30;;;18.90;99.90;;;;;;5115227;28;20650;-38
2022/09/15 11:29:59;;;;;;;6.13;1.90;;;18.80;99.90;;;;;;5113452;28;20632;-40
2022/09/15 11:32:35;;;;;;;4.97;1.80;;;18.70;99.90;;;;;;5113422;28;20623;-40
2022/09/15 11:35:06;;;;;;;5.03;1.83;;;18.50;99.90;;;;;;5115261;28;20275;-41
2022/09/15 11:37:44;;;;;;;4.80;2.30;;;18.30;99.90;;;;;;5115113;28;20165;-40
2022/09/15 11:40:34;;;;;;;4.80;1.77;;;18.20;99.90;;;;;;5114976;28;20526;-39
2022/09/15 11:43:16;;;;;;;3.57;1.70;;;18.20;99.90;;;;;;5110881;28;20217;-41
2022/09/15 11:45:48;;;;;;;4.27;2.00;;;18.10;99.90;;;;;;5114581;28;20280;-40
2022/09/15 11:48:31;;;;;;;8.27;2.17;;;18.10;99.90;;;;;;5114542;28;20632;-40
2022/09/15 11:51:00;;;;;;;4.77;2.00;;;18.00;99.90;;;;;;5114256;28;20190;-38
2022/09/15 11:53:50;;;;;;;3.13;1.87;;;18.00;99.90;;;;;;5114050;28;20189;-40
2022/09/15 11:56:32;;;;;;;5.13;1.83;;;18.00;99.90;;;;;;5114440;28;20194;-40
2022/09/15 11:59:18;;;;;;;7.63;1.90;;;18.10;99.90;;;;;;5114087;28;20227;-41
2022/09/15 12:02:17;;;;;;;5.73;1.80;;;18.10;99.90;;;;;;5114257;28;20285;-39
2022/09/15 12:05:07;;;;;;;3.87;1.93;;;18.30;99.90;;;;;;5106432;28;20183;-41
2022/09/15 12:07:42;;;;;;;2.00;1.43;;;18.30;99.90;;;;;;5113921;28;20155;-40
2022/09/15 12:10:19;;;;;;;6.27;2.10;;;18.30;99.90;;;;;;5114013;28;20158;-39
2022/09/15 12:12:46;;;;;;;6.47;1.57;;;18.50;99.90;;;;;;5114100;28;20166;-46
2022/09/15 12:15:16;;;;;;;2.90;1.60;;;18.50;99.90;;;;;;5114003;28;20690;-44
2022/09/15 12:18:13;;;;;;;2.10;1.27;;;18.60;99.90;;;;;;5114212;28;20205;-46
2022/09/15 12:21:04;;;;;;;3.50;1.63;;;18.60;99.90;;;;;;5114212;28;20222;-46
2022/09/15 12:23:39;;;;;;;5.17;1.73;;;18.70;99.90;;;;;;5114123;28;20255;-45
2022/09/15 12:26:20;;;;;;;5.37;1.50;;;18.70;99.90;;;;;;5113191;28;20202;-45
2022/09/15 12:28:46;;;;;;;6.93;1.63;;;18.70;99.90;;;;;;5114044;28;20169;-46
2022/09/15 12:31:11;;;;;;;3.03;1.57;;;18.70;99.90;;;;;;5114072;28;20177;-46
2022/09/15 12:34:03;;;;;;;6.80;1.83;;;18.70;99.90;;;;;;5112462;28;20235;-44
2022/09/15 12:36:48;;;;;;;6.70;1.40;;;18.70;99.90;;;;;;5113671;28;20289;-44
2022/09/15 12:39:30;;;;;;;6.33;1.93;;;18.70;99.90;;;;;;5113627;28;20262;-44
2022/09/15 12:41:58;;;;;;;4.43;1.43;;;18.70;99.90;;;;;;5113687;28;20182;-45
2022/09/15 12:44:34;;;;;;;5.20;1.63;;;18.70;99.90;;;;;;5113694;28;20315;-44
2022/09/15 12:47:01;;;;;;;3.93;1.50;;;18.60;99.90;;;;;;5113857;28;20161;-46
2022/09/15 12:49:41;;;;;;;4.53;1.43;;;18.60;99.90;;;;;;5113558;28;20216;-44
2022/09/15 12:52:07;;;;;;;3.17;1.27;;;18.50;99.90;;;;;;5114273;28;20170;-44
2022/09/15 12:54:37;;;;;;;4.67;1.20;;;18.40;99.90;;;;;;5112437;28;20174;-45